createdAt,value
2023-08-08T00:01:44.151Z,9.30
2023-08-08T00:04:31.458Z,7.90
2023-08-08T00:07:17.203Z,8.80
2023-08-08T00:10:03.243Z,9.80
2023-08-08T00:12:48.696Z,8.13
2023-08-08T00:15:34.789Z,10.32
2023-08-08T00:18:20.516Z,10.65
2023-08-08T00:21:07.595Z,9.57
2023-08-08T00:23:53.395Z,9.50
2023-08-08T00:26:39.204Z,8.18
2023-08-08T00:29:24.958Z,9.38
2023-08-08T00:32:10.647Z,9.70
2023-08-08T00:34:56.817Z,9.48
2023-08-08T00:37:44.151Z,8.98
2023-08-08T00:40:29.830Z,8.98
2023-08-08T00:43:15.252Z,5.90
2023-08-08T00:46:01.084Z,7.53
2023-08-08T00:48:47.288Z,10.15
2023-08-08T00:51:33.817Z,11.77
2023-08-08T00:54:22.417Z,9.25
2023-08-08T00:57:08.087Z,7.70
2023-08-08T00:59:54.922Z,10.13
2023-08-08T01:02:40.831Z,9.88
2023-08-08T01:05:34.159Z,6.57
2023-08-08T01:08:26.159Z,6.57
2023-08-08T01:11:14.853Z,8.63
2023-08-08T01:14:02.136Z,12.60
2023-08-08T01:16:48.117Z,8.30
2023-08-08T01:19:35.586Z,9.38
2023-08-08T01:22:28.816Z,8.77
2023-08-08T01:25:16.032Z,12.30
2023-08-08T01:28:02.344Z,8.98
2023-08-08T01:30:50.346Z,8.43
2023-08-08T01:33:37.945Z,7.07
2023-08-08T01:36:30.025Z,6.00
2023-08-08T01:39:21.130Z,6.43
2023-08-08T01:42:08.832Z,9.85
2023-08-08T01:44:55.399Z,9.55
2023-08-08T01:47:41.143Z,8.30
2023-08-08T01:50:27.213Z,12.05
2023-08-08T01:53:12.984Z,10.75
2023-08-08T01:55:58.869Z,5.85
2023-08-08T01:58:45.993Z,8.65
2023-08-08T02:01:31.938Z,9.75
2023-08-08T02:04:17.895Z,14.52
2023-08-08T02:07:03.777Z,7.53
2023-08-08T02:09:51.883Z,9.80
2023-08-08T02:12:37.566Z,11.77
2023-08-08T02:15:24.912Z,9.43
2023-08-08T02:18:12.191Z,11.00
2023-08-08T02:20:57.841Z,11.57
2023-08-08T02:23:43.423Z,11.65
2023-08-08T02:26:30.149Z,7.88
2023-08-08T02:29:15.782Z,7.38
2023-08-08T02:32:03.361Z,12.55
2023-08-08T02:34:48.958Z,11.52
2023-08-08T02:37:34.793Z,9.85
2023-08-08T02:40:20.593Z,8.95
2023-08-08T02:43:06.856Z,12.23
2023-08-08T02:45:52.526Z,8.02
2023-08-08T02:48:40.168Z,7.22
2023-08-08T02:51:26.264Z,14.13
2023-08-08T02:54:11.834Z,8.48
2023-08-08T02:57:00.396Z,8.30
2023-08-08T02:59:46.137Z,12.65
2023-08-08T03:02:33.124Z,15.20
2023-08-08T03:05:20.326Z,22.65
2023-08-08T03:08:06.897Z,14.70
2023-08-08T03:10:53.140Z,13.30
2023-08-08T03:13:38.692Z,21.08
2023-08-08T03:16:24.787Z,13.60
2023-08-08T03:19:11.875Z,14.45
2023-08-08T03:22:00.018Z,19.00
2023-08-08T03:24:45.619Z,21.17
2023-08-08T03:27:32.029Z,14.30
2023-08-08T03:30:19.486Z,20.58
2023-08-08T03:33:06.588Z,16.02
2023-08-08T03:35:53.303Z,17.98
2023-08-08T03:38:41.579Z,16.90
2023-08-08T03:41:27.873Z,14.02
2023-08-08T03:44:14.121Z,17.20
2023-08-08T03:47:10.010Z,25.95
2023-08-08T03:50:06.538Z,20.15
2023-08-08T03:52:52.304Z,16.65
2023-08-08T03:55:39.356Z,22.42
2023-08-08T03:58:25.450Z,17.25
2023-08-08T04:01:11.335Z,18.60
2023-08-08T04:03:57.335Z,21.83
2023-08-08T04:06:43.092Z,22.42
2023-08-08T04:09:28.966Z,21.10
2023-08-08T04:12:15.959Z,20.67
2023-08-08T04:15:01.725Z,20.98
2023-08-08T04:17:47.456Z,20.70
2023-08-08T04:20:34.046Z,22.38
2023-08-08T04:23:20.283Z,19.73
2023-08-08T04:26:06.011Z,14.88
2023-08-08T04:28:53.474Z,20.20
2023-08-08T04:31:39.722Z,14.02
2023-08-08T04:34:25.695Z,17.05
2023-08-08T04:37:11.221Z,16.85
2023-08-08T04:39:57.073Z,21.50
2023-08-08T04:42:42.975Z,20.85
2023-08-08T04:45:30.375Z,23.25
2023-08-08T04:48:16.006Z,15.70
2023-08-08T04:51:01.591Z,19.35
2023-08-08T04:53:47.104Z,21.23
2023-08-08T04:56:33.059Z,17.08
2023-08-08T04:59:18.944Z,22.35
2023-08-08T05:02:06.722Z,18.27
2023-08-08T05:04:52.504Z,17.35
2023-08-08T05:07:38.957Z,18.50
2023-08-08T05:10:25.120Z,11.68
2023-08-08T05:13:11.539Z,14.80
2023-08-08T05:15:57.271Z,11.68
2023-08-08T05:18:46.349Z,12.57
2023-08-08T05:21:31.966Z,11.13
2023-08-08T05:24:17.754Z,18.35
2023-08-08T05:27:04.927Z,10.40
2023-08-08T05:29:50.763Z,10.73
2023-08-08T05:32:36.593Z,17.00
2023-08-08T05:35:24.870Z,17.55
2023-08-08T05:38:10.734Z,15.00
2023-08-08T05:40:56.448Z,9.77
2023-08-08T05:43:42.548Z,15.15
2023-08-08T05:46:28.629Z,10.73
2023-08-08T05:49:14.391Z,17.30
2023-08-08T05:52:01.455Z,11.07
2023-08-08T05:54:47.577Z,12.05
2023-08-08T05:57:33.124Z,9.27
2023-08-08T06:00:19.689Z,7.70
2023-08-08T06:03:05.823Z,10.35
2023-08-08T06:05:51.912Z,8.40
2023-08-08T06:08:38.677Z,6.78
2023-08-08T06:11:24.364Z,6.20
2023-08-08T06:14:10.013Z,9.38
2023-08-08T06:16:55.747Z,5.80
2023-08-08T06:19:41.578Z,4.78
2023-08-08T06:22:27.015Z,9.75
2023-08-08T06:25:14.506Z,5.32
2023-08-08T06:28:00.493Z,8.07
2023-08-08T06:30:46.061Z,8.93
2023-08-08T06:33:31.633Z,5.32
2023-08-08T06:36:17.609Z,5.00
2023-08-08T06:39:03.199Z,3.67
2023-08-08T06:41:50.543Z,4.93
2023-08-08T06:44:44.066Z,3.92
2023-08-08T06:47:30.008Z,3.72
2023-08-08T06:50:16.831Z,5.03
2023-08-08T06:53:04.899Z,3.58
2023-08-08T06:55:50.893Z,4.93
2023-08-08T06:58:37.660Z,3.13
2023-08-08T07:01:23.275Z,3.03
2023-08-08T07:04:09.313Z,2.90
2023-08-08T07:06:54.979Z,2.85
2023-08-08T07:09:40.563Z,2.72
2023-08-08T07:12:26.814Z,3.88
2023-08-08T07:15:14.304Z,1.58
2023-08-08T07:18:01.390Z,2.40
2023-08-08T07:20:47.477Z,2.33
2023-08-08T07:23:33.018Z,0.82
2023-08-08T07:26:18.707Z,1.58
2023-08-08T07:29:07.105Z,2.15
2023-08-08T07:31:56.848Z,3.22
2023-08-08T07:34:42.516Z,2.75
2023-08-08T07:37:28.096Z,1.85
2023-08-08T07:40:19.019Z,1.55
2023-08-08T07:43:05.197Z,2.90
2023-08-08T07:45:50.883Z,2.47
2023-08-08T07:48:37.790Z,3.03
2023-08-08T07:51:23.520Z,2.80
2023-08-08T07:54:11.776Z,1.70
2023-08-08T07:56:57.644Z,3.20
2023-08-08T07:59:43.740Z,1.75
2023-08-08T08:02:30.929Z,2.58
2023-08-08T08:05:17.936Z,3.03
2023-08-08T08:08:04.349Z,1.98
2023-08-08T08:10:50.262Z,3.70
2023-08-08T08:13:36.063Z,1.75
2023-08-08T08:16:59.012Z,1.63
2023-08-08T08:19:48.091Z,2.75
2023-08-08T08:22:35.187Z,1.10
2023-08-08T08:25:21.097Z,1.40
2023-08-08T08:28:06.880Z,3.60
2023-08-08T08:30:52.782Z,2.38
2023-08-08T08:33:38.545Z,0.80
2023-08-08T08:36:24.265Z,1.73
2023-08-08T08:39:11.608Z,0.90
2023-08-08T08:42:05.726Z,1.75
2023-08-08T08:44:52.265Z,1.50
2023-08-08T08:47:40.445Z,1.55
2023-08-08T08:50:28.832Z,3.75
2023-08-08T08:53:15.815Z,3.05
2023-08-08T08:56:04.109Z,1.23
2023-08-08T08:58:50.304Z,1.23
2023-08-08T09:01:36.540Z,1.25
2023-08-08T09:04:23.126Z,1.45
2023-08-08T09:07:09.690Z,0.50
2023-08-08T09:09:55.318Z,3.17
2023-08-08T09:12:43.179Z,0.75
2023-08-08T09:15:31.936Z,0.98
2023-08-08T09:18:19.565Z,1.40
2023-08-08T09:21:05.826Z,0.85
2023-08-08T09:23:51.237Z,1.02
2023-08-08T09:26:37.170Z,2.03
2023-08-08T09:29:24.241Z,3.47
2023-08-08T09:32:10.062Z,4.00
2023-08-08T09:35:09.995Z,0.80
2023-08-08T09:37:58.693Z,0.98
2023-08-08T09:40:44.454Z,0.50
2023-08-08T09:43:30.315Z,1.05
2023-08-08T09:46:19.247Z,1.52
2023-08-08T09:49:05.827Z,3.42
2023-08-08T09:51:52.263Z,3.35
2023-08-08T09:54:39.273Z,0.82
2023-08-08T09:57:25.498Z,3.67
2023-08-08T10:00:16.920Z,1.38
2023-08-08T10:03:05.363Z,2.15
2023-08-08T10:05:51.132Z,1.55
2023-08-08T10:08:36.982Z,1.40
2023-08-08T10:11:24.806Z,2.50
2023-08-08T10:14:12.248Z,0.73
2023-08-08T10:17:07.521Z,3.58
2023-08-08T10:20:25.988Z,2.40
2023-08-08T10:23:15.520Z,2.15
2023-08-08T10:26:48.588Z,4.40
2023-08-08T10:33:28.031Z,0.40
2023-08-08T10:36:58.489Z,1.23
2023-08-08T10:40:11.000Z,0.68
2023-08-08T10:43:43.443Z,2.17
2023-08-08T10:47:06.627Z,1.90
2023-08-08T10:50:00.916Z,1.08
2023-08-08T10:52:56.222Z,1.90
2023-08-08T10:55:43.251Z,3.08
2023-08-08T10:58:41.253Z,1.20
2023-08-08T11:01:27.691Z,0.90
2023-08-08T11:04:19.176Z,1.05
2023-08-08T11:07:05.383Z,1.15
2023-08-08T11:09:53.292Z,1.83
2023-08-08T11:12:39.032Z,1.45
2023-08-08T11:15:24.742Z,1.70
2023-08-08T11:18:10.940Z,1.30
2023-08-08T11:21:05.163Z,1.42
2023-08-08T11:23:59.340Z,2.60
2023-08-08T11:27:01.086Z,2.90
2023-08-08T11:29:51.646Z,2.92
2023-08-08T11:32:37.872Z,1.75
2023-08-08T11:35:24.402Z,1.98
2023-08-08T11:38:10.509Z,1.48
2023-08-08T11:40:56.437Z,1.67
2023-08-08T11:43:44.569Z,5.38
2023-08-08T11:46:31.354Z,1.75
2023-08-08T11:49:18.818Z,1.10
2023-08-08T11:52:07.634Z,0.77
2023-08-08T11:54:55.833Z,1.90
2023-08-08T11:57:41.821Z,1.67
2023-08-08T12:00:31.200Z,2.15
2023-08-08T12:03:19.654Z,2.08
2023-08-08T12:06:13.106Z,4.00
2023-08-08T12:08:58.687Z,1.05
2023-08-08T12:11:46.113Z,1.65
2023-08-08T12:14:37.693Z,0.50
2023-08-08T12:17:33.378Z,4.70
2023-08-08T12:20:20.377Z,3.40
2023-08-08T12:23:05.736Z,2.95
2023-08-08T12:25:52.105Z,2.78
2023-08-08T12:28:38.064Z,1.42
2023-08-08T12:31:23.529Z,0.90
2023-08-08T12:34:10.975Z,1.65
2023-08-08T12:36:56.754Z,1.73
2023-08-08T12:39:42.288Z,1.30
2023-08-08T12:42:28.000Z,2.65
2023-08-08T12:45:14.493Z,1.35
2023-08-08T12:48:00.225Z,1.58
2023-08-08T12:50:47.631Z,0.88
2023-08-08T12:53:34.119Z,3.28
2023-08-08T12:56:20.040Z,3.75
2023-08-08T12:59:06.512Z,0.68
2023-08-08T13:01:52.266Z,1.58
2023-08-08T13:04:38.507Z,1.45
2023-08-08T13:07:25.562Z,2.15
2023-08-08T13:10:11.446Z,1.70
2023-08-08T13:12:57.389Z,3.40
2023-08-08T13:15:42.952Z,1.27
2023-08-08T13:18:28.459Z,2.30
2023-08-08T13:21:14.703Z,6.28
2023-08-08T13:24:01.527Z,3.22
2023-08-08T13:26:47.360Z,3.03
2023-08-08T13:29:33.233Z,3.38
2023-08-08T13:32:18.798Z,1.77
2023-08-08T13:35:05.927Z,3.28
2023-08-08T13:37:53.323Z,3.67
2023-08-08T13:40:40.125Z,1.45
2023-08-08T13:43:26.015Z,1.02
2023-08-08T13:46:11.712Z,3.95
2023-08-08T13:48:57.632Z,0.82
2023-08-08T13:51:45.887Z,1.40
2023-08-08T13:54:32.951Z,0.93
2023-08-08T13:57:19.934Z,3.00
2023-08-08T14:00:07.814Z,1.55
2023-08-08T14:02:53.496Z,1.88
2023-08-08T14:05:39.100Z,1.35
2023-08-08T14:08:24.659Z,1.92
2023-08-08T14:11:10.276Z,1.45
2023-08-08T14:13:57.069Z,2.72
2023-08-08T14:16:42.715Z,1.25
2023-08-08T14:19:28.272Z,3.50
2023-08-08T14:22:14.237Z,2.17
2023-08-08T14:24:59.725Z,3.85
2023-08-08T14:27:45.561Z,0.63
2023-08-08T14:30:32.590Z,0.65
2023-08-08T14:33:18.491Z,2.05
2023-08-08T14:36:05.360Z,1.25
2023-08-08T14:38:50.770Z,4.15
2023-08-08T14:41:36.305Z,1.05
2023-08-08T14:44:21.854Z,1.63
2023-08-08T14:47:09.026Z,0.70
2023-08-08T14:49:55.132Z,2.65
2023-08-08T14:52:41.128Z,2.40
2023-08-08T14:55:26.705Z,2.50
2023-08-08T14:58:13.448Z,1.52
2023-08-08T15:00:59.597Z,1.40
2023-08-08T15:03:47.074Z,1.58
2023-08-08T15:06:33.374Z,2.53
2023-08-08T15:09:19.563Z,2.38
2023-08-08T15:12:05.861Z,0.75
2023-08-08T15:14:52.444Z,0.65
2023-08-08T15:17:38.296Z,1.35
2023-08-08T15:20:25.507Z,1.08
2023-08-08T15:23:14.618Z,1.33
2023-08-08T15:26:00.415Z,3.20
2023-08-08T15:28:45.970Z,1.77
2023-08-08T15:31:33.778Z,2.92
2023-08-08T15:34:19.706Z,1.80
2023-08-08T15:37:06.642Z,2.80
2023-08-08T15:39:52.293Z,1.40
2023-08-08T15:42:38.229Z,7.05
2023-08-08T15:45:23.991Z,1.77
2023-08-08T15:48:09.804Z,2.13
2023-08-08T15:50:56.141Z,2.35
2023-08-08T15:53:43.228Z,2.88
2023-08-08T15:56:28.708Z,1.70
2023-08-08T15:59:14.612Z,2.88
2023-08-08T16:02:00.120Z,1.75
2023-08-08T16:04:46.508Z,1.77
2023-08-08T16:07:32.302Z,2.13
2023-08-08T16:10:19.392Z,2.92
2023-08-08T16:13:05.558Z,2.00
2023-08-08T16:15:51.266Z,1.52
2023-08-08T16:18:36.981Z,6.35
2023-08-08T16:21:23.305Z,2.42
2023-08-08T16:24:09.843Z,2.55
2023-08-08T16:26:57.048Z,4.20
2023-08-08T16:29:42.598Z,1.50
2023-08-08T16:32:33.466Z,1.70
2023-08-08T16:35:19.329Z,1.85
2023-08-08T16:38:05.096Z,2.40
2023-08-08T16:40:50.907Z,1.70
2023-08-08T16:43:39.373Z,2.63
2023-08-08T16:46:25.715Z,1.38
2023-08-08T16:49:11.795Z,3.90
2023-08-08T16:52:01.061Z,1.60
2023-08-08T16:54:54.696Z,1.85
2023-08-08T16:57:41.053Z,2.58
2023-08-08T17:00:29.031Z,3.83
2023-08-08T17:03:17.929Z,2.35
2023-08-08T17:06:03.882Z,2.58
2023-08-08T17:08:50.063Z,5.05
2023-08-08T17:11:38.738Z,3.05
2023-08-08T17:14:25.274Z,4.05
2023-08-08T17:17:12.265Z,3.58
2023-08-08T17:19:58.364Z,2.90
2023-08-08T17:22:47.056Z,2.88
2023-08-08T17:25:33.089Z,4.15
2023-08-08T17:28:18.893Z,5.65
2023-08-08T17:31:04.923Z,3.28
2023-08-08T17:33:52.037Z,2.40
2023-08-08T17:36:37.817Z,3.10
2023-08-08T17:39:23.628Z,3.90
2023-08-08T17:42:09.334Z,1.77
2023-08-08T17:44:54.826Z,1.42
2023-08-08T17:47:40.510Z,2.65
2023-08-08T17:50:27.333Z,7.15
2023-08-08T17:53:12.704Z,5.32
2023-08-08T17:55:58.624Z,1.50
2023-08-08T17:58:45.730Z,4.88
2023-08-08T18:01:32.821Z,6.78
2023-08-08T18:04:18.881Z,2.17
2023-08-08T18:07:09.105Z,4.82
2023-08-08T18:09:54.715Z,3.20
2023-08-08T18:12:41.168Z,6.63
2023-08-08T18:15:27.215Z,2.22
2023-08-08T18:18:12.857Z,4.47
2023-08-08T18:20:58.953Z,1.88
2023-08-08T18:23:45.942Z,3.53
2023-08-08T18:26:31.569Z,3.72
2023-08-08T18:29:17.220Z,4.70
2023-08-08T18:32:03.336Z,3.67
2023-08-08T18:34:49.642Z,5.32
2023-08-08T18:37:36.338Z,4.03
2023-08-08T18:40:23.706Z,4.00
2023-08-08T18:43:10.255Z,2.55
2023-08-08T18:45:55.983Z,4.15
2023-08-08T18:48:41.777Z,3.78
2023-08-08T18:51:29.264Z,3.13
2023-08-08T18:54:15.505Z,2.58
2023-08-08T18:57:02.373Z,2.88
2023-08-08T18:59:48.245Z,2.70
2023-08-08T19:02:34.039Z,2.63
2023-08-08T19:05:22.544Z,3.38
2023-08-08T19:08:08.346Z,6.90
2023-08-08T19:10:54.212Z,2.45
2023-08-08T19:13:41.335Z,4.80
2023-08-08T19:16:27.319Z,3.15
2023-08-08T19:19:14.034Z,2.50
2023-08-08T19:22:00.167Z,3.75
2023-08-08T19:24:46.568Z,2.45
2023-08-08T19:27:32.132Z,4.30
2023-08-08T19:30:19.078Z,7.85
2023-08-08T19:33:05.813Z,3.63
2023-08-08T19:35:51.629Z,5.95
2023-08-08T19:38:37.283Z,3.15
2023-08-08T19:41:22.909Z,2.97
2023-08-08T19:44:08.433Z,6.57
2023-08-08T19:46:56.643Z,5.40
2023-08-08T19:49:42.232Z,5.82
2023-08-08T19:52:27.792Z,5.63
2023-08-08T19:55:13.458Z,4.05
2023-08-08T19:58:00.882Z,5.22
2023-08-08T20:00:46.632Z,6.93
2023-08-08T20:03:33.958Z,5.95
2023-08-08T20:06:20.032Z,4.30
2023-08-08T20:09:05.857Z,7.32
2023-08-08T20:11:51.688Z,8.70
2023-08-08T20:14:37.446Z,5.95
2023-08-08T20:17:23.169Z,6.80
2023-08-08T20:20:11.515Z,9.05
2023-08-08T20:22:57.313Z,7.38
2023-08-08T20:25:45.684Z,7.78
2023-08-08T20:28:31.729Z,9.52
2023-08-08T20:31:17.679Z,6.55
2023-08-08T20:34:03.929Z,8.23
2023-08-08T20:36:51.338Z,7.90
2023-08-08T20:39:37.253Z,9.60
2023-08-08T20:42:23.351Z,6.20
2023-08-08T20:45:09.710Z,6.38
2023-08-08T20:47:55.476Z,9.57
2023-08-08T20:50:41.572Z,4.30
2023-08-08T20:53:28.440Z,6.28
2023-08-08T20:56:15.842Z,3.70
2023-08-08T20:59:01.412Z,3.53
2023-08-08T21:01:47.102Z,3.80
2023-08-08T21:04:32.786Z,3.75
2023-08-08T21:07:20.253Z,5.40
2023-08-08T21:10:08.570Z,5.30
2023-08-08T21:12:54.665Z,6.95
2023-08-08T21:15:40.531Z,7.40
2023-08-08T21:18:26.258Z,3.65
2023-08-08T21:21:11.922Z,3.22
2023-08-08T21:23:57.350Z,3.75
2023-08-08T21:26:44.591Z,3.00
2023-08-08T21:29:30.148Z,3.10
2023-08-08T21:32:15.557Z,3.40
2023-08-08T21:35:01.720Z,2.55
2023-08-08T21:37:47.525Z,3.63
2023-08-08T21:40:33.297Z,3.05
2023-08-08T21:43:20.580Z,3.97
2023-08-08T21:46:06.438Z,3.45
2023-08-08T21:48:52.400Z,3.25
2023-08-08T21:51:38.012Z,3.28
2023-08-08T21:54:23.925Z,4.45
2023-08-08T21:57:09.584Z,4.18
2023-08-08T21:59:56.711Z,4.40
2023-08-08T22:02:42.226Z,3.75
2023-08-08T22:05:28.318Z,6.05
2023-08-08T22:08:14.804Z,3.80
2023-08-08T22:11:00.254Z,4.03
2023-08-08T22:13:46.167Z,4.55
2023-08-08T22:16:33.026Z,4.57
2023-08-08T22:19:18.991Z,5.95
2023-08-08T22:22:04.757Z,4.28
2023-08-08T22:24:50.551Z,4.20
2023-08-08T22:27:36.544Z,3.72
2023-08-08T22:30:22.752Z,5.68
2023-08-08T22:33:10.507Z,3.92
2023-08-08T22:35:56.156Z,6.13
2023-08-08T22:38:41.965Z,4.30
2023-08-08T22:41:27.832Z,4.05
2023-08-08T22:44:13.433Z,4.80
2023-08-08T22:46:59.442Z,5.50
2023-08-08T22:49:47.083Z,8.18
2023-08-08T22:52:33.122Z,6.72
2023-08-08T22:55:18.659Z,8.18
2023-08-08T22:58:04.549Z,6.00
2023-08-08T23:00:49.955Z,6.00
2023-08-08T23:03:37.637Z,7.60
2023-08-08T23:06:25.112Z,7.93
2023-08-08T23:09:11.353Z,8.75
2023-08-08T23:11:57.165Z,7.93
2023-08-08T23:14:43.757Z,7.13
2023-08-08T23:17:29.474Z,11.18
2023-08-08T23:20:15.484Z,11.98
2023-08-08T23:23:02.362Z,9.43
2023-08-08T23:25:47.816Z,9.07
2023-08-08T23:28:33.688Z,12.20
2023-08-08T23:31:21.189Z,12.40
2023-08-08T23:34:07.360Z,13.50
2023-08-08T23:36:53.160Z,13.88
2023-08-08T23:39:40.488Z,12.05
2023-08-08T23:42:25.964Z,12.70
2023-08-08T23:45:13.236Z,12.65
2023-08-08T23:47:59.815Z,14.32
2023-08-08T23:50:45.253Z,14.13
2023-08-08T23:53:31.447Z,14.52
2023-08-08T23:56:18.555Z,14.77
2023-08-08T23:59:04.469Z,15.15
